Terminal Aerodrome Forecast
Issued by NWS Buffalo, NY

Home | Current Version | Previous Version | Text Only | Print | Product List | Glossary On
Versions: 1 2 3 4 5 6 7 8 9 10 11 12 13 14 15 16 17 18 19 20 21 22 23 24
804
FTUS41 KBUF 242039 AAA
TAFBUF
TAF AMD
KBUF 242039Z 2421/2518 13006KT P6SM BKN150
     FM250500 12008KT P6SM -RA OVC050
     FM250600 11008KT P6SM RA OVC025
     FM251200 09008KT 5SM RA OVC007
     FM251600 08009KT P6SM VCSH OVC015=

USA.gov is the U.S. government's official web portal to all federal, state and local government web resources and services.